^^

..:: Metar reader and decoder ::..




OSSERVAZIONI E PREVISIONI METEOROLOGICHE DAGLI AEROPORTI ITALIANI
(messaggi METAR)

 


LIPX - Villafranca(Cv/M, Italy
Distanza dalla stazione: NNE 28km
Dati ricevuti: Fri, 27-May-2022 02:50
Sereno
Sereno
 Vento da NNO
Vento: NNO 4 km/h
Temperatura: 19°C
P.to di Rugiada: 17°C
Umidità: 88%
Barometro: 1019 hPa
Sommario: Sereno
Visibilità: superiore a 10 km
2022/05/27 00:50 LIPX 270050Z 34002KT CAVOK 19/17 Q1019
LIPO - Brescia/Montichiari, Italy
Distanza dalla stazione: NO 38km
Dati ricevuti: Fri, 27-May-2022 02:50
Poco nuvoloso
Poco nuvoloso
 Vento da NNE
Vento: NNE 7 km/h
Temperatura: 21°C
P.to di Rugiada: 18°C
Umidità: 83%
Barometro: 1019 hPa
Nuvole: Poco nuvoloso
Visibilità: 10 km
Dettaglio nuvole: Poco nuvoloso 3962 m
2022/05/27 00:50 LIPO 270050Z AUTO 02004KT 9999 FEW130/// 21/18 Q1019
 
LIPL - Ghedi (it-Afb), Italy
Distanza dalla stazione: NO 42km
Dati ricevuti: Fri, 27-May-2022 01:55
Sereno
Sereno
 Vento da NE
Vento: NE 4 km/h
Temperatura: 21°C
P.to di Rugiada: 21°C
Umidità: 100%
Barometro: 1018 hPa
Sommario: Sereno
Visibilità: superiore a 10 km
2022/05/26 23:55 LIPL 262355Z 05002KT CAVOK 21/21 Q1018
LIMP - Parma, Italy
Distanza dalla stazione: SO 49km
Dati ricevuti: Thu, 26-May-2022 22:50
Non attivo
Sereno
Sereno
 Vento da ENE
Vento: ENE 4 km/h
Temperatura: 22°C
P.to di Rugiada: 17°C
Umidità: 73%
Barometro: 1019 hPa
Sommario: Sereno
Visibilità: superiore a 10 km
2022/05/26 20:50 LIMP 262050Z 06002KT CAVOK 22/17 Q1019
 
LIMS - Piacenza (it-Afb, Italy
Distanza dalla stazione: OSO 81km
Dati ricevuti: Thu, 26-May-2022 19:55
Non attivo
Sereno
Sereno
 Vento da ESE
Vento: ESE 13 km/h
Temperatura: 25°C
P.to di Rugiada: 22°C
Umidità: 83%
Barometro: 1018 hPa
Sommario: Sereno
Visibilità: superiore a 10 km
2022/05/26 17:55 LIMS 261755Z 12007KT 080V150 CAVOK 25/22 Q1018
LIPF - Ferrara (aut), Italy
Distanza dalla stazione: ESE 84km
Dati ricevuti: Thu, 26-May-2022 19:55
Non attivo
Sereno
Sereno
 Vento da variabile
Vento: variabile 0 km/h
Temperatura: 24°C
P.to di Rugiada: 18°C
Umidità: 69%
Barometro: 1019 hPa
Sommario: Sereno
Visibilità: superiore a 10 km
2022/05/26 17:55 LIPF 261755Z /////KT CAVOK 24/18 Q1019
 
LIPE - Bologna/Borgo (a, Italy
Distanza dalla stazione: SE 88km
Dati ricevuti: Fri, 27-May-2022 02:50
Sereno
Sereno
 Vento da SO
Vento: SO 6 km/h
Temperatura: 21°C
P.to di Rugiada: 18°C
Umidità: 83%
Barometro: 1019 hPa
Sommario: Sereno
Visibilità: superiore a 10 km
2022/05/27 00:50 LIPE 270050Z 22003KT 180V260 CAVOK 21/18 Q1019
LIPU - Padova (civ/It-A, Italy
Distanza dalla stazione: ENE 93km
Dati ricevuti: Thu, 26-May-2022 15:50
Non attivo
Leggera pioggia, parzialmente nuvoloso
Leggera pioggia, parzialmente nuvoloso
 Vento da variabile
Vento: variabile 6 km/h
Temperatura: 25°C
P.to di Rugiada: 17°C
Umidità: 61%
Barometro: 1022 hPa
Sommario: Leggera pioggia
Nuvole: parzialmente nuvoloso
Visibilità: 10 km
Dettaglio nuvole: parzialmente nuvoloso 914 m
2022/05/26 13:50 LIPU 261350Z VRB03KT 9999 -RA SCT030 25/17 Q1022
 
LIME - Bergamo/Orio Ser, Italy
Distanza dalla stazione: NO 95km
Dati ricevuti: Fri, 27-May-2022 02:50
Sereno
Sereno
 Vento da N
Vento: N 7 km/h
Temperatura: 20°C
P.to di Rugiada: 17°C
Umidità: 83%
Barometro: 1020 hPa
Nuvole: Sereno
Visibilità: 10 km
2022/05/27 00:50 LIME 270050Z AUTO 36004KT 320V020 9999 NCD 20/17 Q1020
LIMT - Cisa Pass, Italy
Distanza dalla stazione: SO 103km
Dati ricevuti: Mon, 23-Sep-2019 13:55
Non attivo
Nebbia
Nebbia
 Vento da calm
Vento: Calma
Temperatura: 10°C
P.to di Rugiada: 10°C
Umidità: 100%
Barometro: 1014 hPa
Sommario: Nebbia
Visibilità: 0 km
2019/09/23 11:55 LIMT 231155Z 00000KT 0000 FG VV/// 10/10 Q1014 RMK MON INVIS VAL INVIS VIS MIN 0000
 
LIVC - Cimone Mountain, Italy
Distanza dalla stazione: S 108km
Dati ricevuti: Fri, 27-May-2022 01:55

 Vento da SO
Vento: SO 17 km/h
Temperatura: 12°C
P.to di Rugiada: 4°C
Umidità: 58%
Barometro: 1030 hPa
2022/05/26 23:55 LIVC 262355Z AUTO 23009KT //// 12/04 Q1030
LIVP - Paganella Mounta, Italy
Distanza dalla stazione: NNE 112km
Dati ricevuti: Fri, 27-May-2022 01:55
Sereno
Sereno
 Vento da variabile
Vento: variabile 4 km/h
Temperatura: 9°C
P.to di Rugiada: 7°C
Umidità: 87%
Barometro: 1028 hPa
Sommario: Sereno
Visibilità: superiore a 10 km
2022/05/26 23:55 LIVP 262355Z VRB02KT CAVOK 09/07 Q1028
 
LIML - Milano/Linate, Italy
Distanza dalla stazione: ONO 115km
Dati ricevuti: Fri, 27-May-2022 02:50
Sereno
Sereno
 Vento da N
Vento: N 6 km/h
Temperatura: 20°C
P.to di Rugiada: 17°C
Umidità: 83%
Barometro: 1019 hPa
Sommario: Sereno
Visibilità: superiore a 10 km
2022/05/27 00:50 LIML 270050Z 01003KT CAVOK 20/17 Q1019 NOSIG
LIPS - Istrana (it-Afb), Italy
Distanza dalla stazione: ENE 123km
Dati ricevuti: Fri, 27-May-2022 01:55
Sereno
Sereno
 Vento da variabile
Vento: variabile 0 km/h
Temperatura: 20°C
P.to di Rugiada: 18°C
Umidità: 88%
Barometro: 1019 hPa
Sommario: Sereno
Visibilità: superiore a 10 km
2022/05/26 23:55 LIPS 262355Z /////KT CAVOK 20/18 Q1019
 
LIPH - Treviso(Civ/It-A, Italy
Distanza dalla stazione: ENE 127km
Dati ricevuti: Fri, 27-May-2022 02:50
Sereno
Sereno
 Vento da NNO
Vento: NNO 4 km/h
Temperatura: 19°C
P.to di Rugiada: 17°C
Umidità: 88%
Barometro: 1019 hPa
Nuvole: Sereno
Visibilità: 10 km
2022/05/27 00:50 LIPH 270050Z AUTO 34002KT 9999 NCD 19/17 Q1019
LIPZ - Venezia/Tessera, Italy
Distanza dalla stazione: ENE 133km
Dati ricevuti: Fri, 27-May-2022 02:50
Sereno
Sereno
 Vento da NO
Vento: NO 4 km/h
Temperatura: 21°C
P.to di Rugiada: 17°C
Umidità: 78%
Barometro: 1018 hPa
Sommario: Sereno
Visibilità: superiore a 10 km
2022/05/27 00:50 LIPZ 270050Z 31002KT CAVOK 21/17 Q1018 NOSIG
 
LIQW - Sarzana/Luni, Italy
Distanza dalla stazione: SSO 135km
Dati ricevuti: Thu, 26-May-2022 22:55
Non attivo
Sereno
Sereno
 Vento da variabile
Vento: variabile 0 km/h
Temperatura: 21°C
P.to di Rugiada: 17°C
Umidità: 78%
Barometro: 1017 hPa
Sommario: Sereno
Visibilità: superiore a 10 km
2022/05/26 20:55 LIQW 262055Z /////KT CAVOK 21/17 Q1017
LIVR - Rolle Pass, Italy
Distanza dalla stazione: NE 150km
Dati ricevuti: Thu, 26-May-2022 21:55
Non attivo
parzialmente nuvoloso
parzialmente nuvoloso
 Vento da SE
Vento: SE 13 km/h
Temperatura: 10°C
Temperatura del vento: 8°C
P.to di Rugiada: 9°C
Umidità: 94%
Barometro: 1027 hPa
Nuvole: parzialmente nuvoloso
Visibilità: 10 km
Dettaglio nuvole: parzialmente nuvoloso 305 m
2022/05/26 19:55 LIVR 261955Z 13007KT 9999 SCT010 10/09 Q1027
 
LIPC - Cervia (it-Afb), Italy
Dati ricevuti: Fri, 27-May-2022 01:55
Sereno
Sereno
 Vento da ONO
Vento: ONO 4 km/h
Temperatura: 19°C
P.to di Rugiada: 18°C
Umidità: 94%
Barometro: 1019 hPa
Sommario: Sereno
Visibilità: superiore a 10 km
2022/05/26 23:55 LIPC 262355Z 29002KT CAVOK 19/18 Q1019
LIPR - Rimini (civ/It-A, Italy
Dati ricevuti: Fri, 27-May-2022 02:50
Molto nuvoloso
Molto nuvoloso
 Vento da variabile
Vento: variabile 4 km/h
Temperatura: 21°C
P.to di Rugiada: 18°C
Umidità: 83%
Barometro: 1019 hPa
Nuvole: Molto nuvoloso
Visibilità: 10 km
Dettaglio nuvole: Molto nuvoloso 4267 m
2022/05/27 00:50 LIPR 270050Z AUTO VRB02KT 9999 BKN140/// 21/18 Q1019
 
LIPK - Forli (civ/It-Af, Italy
Distanza dalla stazione: SE 154km
Dati ricevuti: Thu, 26-May-2022 17:50
Non attivo
parzialmente nuvoloso
parzialmente nuvoloso
 Vento da NNE
Vento: NNE 7 km/h
Temperatura: 25°C
P.to di Rugiada: 19°C
Umidità: 69%
Barometro: 1019 hPa
Nuvole: parzialmente nuvoloso
Visibilità: 10 km
Dettaglio nuvole: parzialmente nuvoloso 1524 m
2022/05/26 15:50 LIPK 261550Z 03004KT 9999 SCT050 25/19 Q1019
LIRX - Monte Calamita, Italy
Dati ricevuti: Thu, 26-May-2022 19:55
Non attivo
Molto nuvoloso
Molto nuvoloso
 Vento da ESE
Vento: ESE 7 km/h
Temperatura: 25°C
P.to di Rugiada: 9°C
Umidità: 36%
Barometro: 1015 hPa
Nuvole: Molto nuvoloso
Visibilità: 10 km
Dettaglio nuvole: Molto nuvoloso 1219 m
2022/05/26 17:55 LIRX 261755Z 12004KT 9999 BKN040 25/09 Q1015
 
LIVM - Punta Marina/Rav, Italy
Dati ricevuti: Fri, 27-May-2022 01:55

 Vento da variabile
Vento: variabile 2 km/h
Temperatura: 21°C
P.to di Rugiada: 19°C
Umidità: 88%
Barometro: 1019 hPa
2022/05/26 23:55 LIVM 262355Z AUTO VRB01KT //// 21/19 Q1019
LIMV - Passo dei Giovi, Italy
Distanza dalla stazione: OSO 152km
Dati ricevuti: Thu, 26-May-2022 19:55
Non attivo
Sereno
Sereno
 Vento da variabile
Vento: variabile 0 km/h
Temperatura: 23°C
P.to di Rugiada: 14°C
Umidità: 57%
Barometro: 1020 hPa
Sommario: Sereno
Visibilità: superiore a 10 km
2022/05/26 17:55 LIMV 261755Z /////KT CAVOK 23/14 Q1020
 
LIPB - Bolzano(Civ/It-A, Italy
Distanza dalla stazione: NNE 152km
Dati ricevuti: Thu, 26-May-2022 22:50
Non attivo
Poco nuvoloso
Poco nuvoloso
 Vento da NO
Vento: NO 6 km/h
Temperatura: 21°C
P.to di Rugiada: 16°C
Umidità: 73%
Barometro: 1021 hPa
Nuvole: Poco nuvoloso
Visibilità: 10 km
Dettaglio nuvole: Poco nuvoloso 3048 m
2022/05/26 20:50 LIPB 262050Z 31003KT 230V030 9999 FEW100 21/16 Q1021
LIVD - Bolzano-Dobbiaco, Italy
Dati ricevuti: Thu, 26-May-2022 19:55
Non attivo
Molto nuvoloso
Molto nuvoloso
 Vento da variabile
Vento: variabile 0 km/h
Temperatura: 17°C
P.to di Rugiada: 14°C
Umidità: 83%
Barometro: 1024 hPa
Nuvole: Molto nuvoloso
Visibilità: 10 km
Dettaglio nuvole: Poco nuvoloso 762 m
Molto nuvoloso 914 m
2022/05/26 17:55 LIVD 261755Z /////KT 9999 FEW025CB BKN030 17/14 Q1024
 
LIVE - Bolzano-Passo Resia, Italy
Distanza dalla stazione: NO 160km
Dati ricevuti: Fri, 27-May-2022 01:55
Sereno
Sereno
 Vento da NE
Vento: NE 9 km/h
Temperatura: 11°C
P.to di Rugiada: 9°C
Umidità: 88%
Barometro: 1025 hPa
Sommario: Sereno
Visibilità: superiore a 10 km
2022/05/26 23:55 LIVE 262355Z 04005KT CAVOK 11/09 Q1025
LIMH - Aosta-Pian Rosa (mtn T, Italy
Dati ricevuti: Mon, 23-May-2022 22:55
Non attivo

 Vento da variabile
Vento: variabile 0 km/h
2022/05/23 20:55 LIMH 232055Z AUTO /////KT //// ///// Q////
 
LIMZ - Cuneo/Levaldigi, Italy
Dati ricevuti: Fri, 27-May-2022 02:50
Poco nuvoloso
Poco nuvoloso
 Vento da SSO
Vento: SSO 7 km/h
Temperatura: 16°C
P.to di Rugiada: 14°C
Umidità: 88%
Barometro: 1021 hPa
Nuvole: Poco nuvoloso
Visibilità: 10 km
Dettaglio nuvole: Poco nuvoloso 3962 m
2022/05/27 00:50 LIMZ 270050Z AUTO 21004KT 9999 FEW130/// 16/14 Q1021
LIMK - Torino-Bric Della Croce, Italy
Dati ricevuti: Thu, 26-May-2022 19:55
Non attivo
Sereno
Sereno
 Vento da SSO
Vento: SSO 4 km/h
Temperatura: 23°C
P.to di Rugiada: 17°C
Umidità: 69%
Barometro: 1021 hPa
Sommario: Sereno
Visibilità: superiore a 10 km
2022/05/26 17:55 LIMK 261755Z 20002KT CAVOK 23/17 Q1021
 
LIMN - Novara-Cameri (it-Afb), Italy
Dati ricevuti: Thu, 26-May-2022 19:55
Non attivo
Poco nuvoloso
Poco nuvoloso
 Vento da variabile
Vento: variabile 4 km/h
Temperatura: 28°C
Indice di calore: 28°C
P.to di Rugiada: 15°C
Umidità: 45%
Barometro: 1019 hPa
Nuvole: Poco nuvoloso
Visibilità: 10 km
Dettaglio nuvole: Poco nuvoloso 762 m
2022/05/26 17:55 LIMN 261755Z VRB02KT 9999 FEW025TCU 28/15 Q1019
LIPA - Pordenone-Aviano (it/Us-Af, Italy
Dati ricevuti: Thu, 26-May-2022 21:55
Non attivo
Poco nuvoloso
Poco nuvoloso
 Vento da variabile
Vento: variabile 0 km/h
Temperatura: 23°C
P.to di Rugiada: 18°C
Umidità: 74%
Barometro: 1019 hPa
Nuvole: Poco nuvoloso
Visibilità: 10 km
Dettaglio nuvole: Poco nuvoloso 1829 m
2022/05/26 19:55 LIPA 261955Z /////KT 9999 FEW060 23/18 Q1019
 
LIPI - Udine-Rivolto (it-Afb), Italy
Dati ricevuti: Fri, 27-May-2022 01:55
Sereno
Sereno
 Vento da N
Vento: N 9 km/h
Temperatura: 18°C
P.to di Rugiada: 16°C
Umidità: 88%
Barometro: 1019 hPa
Sommario: Sereno
Visibilità: superiore a 10 km
2022/05/26 23:55 LIPI 262355Z 36005KT CAVOK 18/16 Q1019
LIVO - Udine-Tarvisio, Italy
Dati ricevuti: Thu, 26-May-2022 19:55
Non attivo
parzialmente nuvoloso
parzialmente nuvoloso
 Vento da calm
Vento: Calma
Temperatura: 17°C
P.to di Rugiada: 15°C
Umidità: 88%
Barometro: 1022 hPa
Nuvole: parzialmente nuvoloso
Visibilità: 10 km
Dettaglio nuvole: parzialmente nuvoloso 914 m
2022/05/26 17:55 LIVO 261755Z 00000KT 9999 SCT030 17/15 Q1022
 
LIPQ - Trieste-Ronchi Dei Legionari, Italy
Dati ricevuti: Fri, 27-May-2022 02:50
Molto nuvoloso
Molto nuvoloso
 Vento da variabile
Vento: variabile 2 km/h
Temperatura: 17°C
P.to di Rugiada: 15°C
Umidità: 88%
Barometro: 1019 hPa
Nuvole: Molto nuvoloso
Visibilità: 10 km
Dettaglio nuvole: Molto nuvoloso 4267 m
2022/05/27 00:50 LIPQ 270050Z AUTO VRB01KT 9999 BKN140/// 17/15 Q1019
LIVT - Trieste, Italy
Dati ricevuti: Thu, 26-May-2022 19:55
Non attivo
Molto nuvoloso
Molto nuvoloso
 Vento da calm
Vento: Calma
Temperatura: 25°C
P.to di Rugiada: 20°C
Umidità: 74%
Barometro: 1018 hPa
Nuvole: Molto nuvoloso
Visibilità: 10 km
Dettaglio nuvole: Molto nuvoloso 1219 m
2022/05/26 17:55 LIVT 261755Z 00000KT 9999 BKN040 25/20 Q1018
 
LIRQ - Firenze/Peretola, Italy
Dati ricevuti: Fri, 27-May-2022 02:50
Sereno
Sereno
 Vento da S
Vento: S 4 km/h
Temperatura: 22°C
P.to di Rugiada: 18°C
Umidità: 78%
Barometro: 1017 hPa
Sommario: Sereno
Visibilità: superiore a 10 km
2022/05/27 00:50 LIRQ 270050Z 18002KT CAVOK 22/18 Q1017
LIRP - Pisa (civ/It-Afb, Italy
Dati ricevuti: Fri, 27-May-2022 02:45
Sereno
Sereno
 Vento da SSE
Vento: SSE 7 km/h
Temperatura: 21°C
P.to di Rugiada: 20°C
Umidità: 94%
Barometro: 1017 hPa
Sommario: Sereno
Visibilità: superiore a 10 km
2022/05/27 00:45 LIRP 270045Z 15004KT CAVOK 21/20 Q1017 NOSIG
 
LIRA - Roma-Ciampino(It-Afb/, Italy
Dati ricevuti: Fri, 27-May-2022 02:50
Sereno
Sereno
 Vento da NNE
Vento: NNE 9 km/h
Temperatura: 22°C
P.to di Rugiada: 14°C
Umidità: 61%
Barometro: 1016 hPa
Sommario: Sereno
Visibilità: superiore a 10 km
2022/05/27 00:50 LIRA 270050Z 03005KT 350V070 CAVOK 22/14 Q1016
LIRU - Rome/Urbe (it-Af, Italy
Dati ricevuti: Thu, 26-May-2022 19:50
Non attivo
Sereno
Sereno
 Vento da ENE
Vento: ENE 7 km/h
Temperatura: 28°C
Indice di calore: 28°C
P.to di Rugiada: 15°C
Umidità: 45%
Barometro: 1016 hPa
Sommario: Sereno
Visibilità: superiore a 10 km
2022/05/26 17:50 LIRU 261750Z 06004KT 030V100 CAVOK 28/15 Q1016
 
LIRG - Roma-Guidonia (it-Afb, Italy
Dati ricevuti: Thu, 26-May-2022 19:55
Non attivo
Sereno
Sereno
 Vento da NNE
Vento: NNE 9 km/h
Temperatura: 30°C
P.to di Rugiada: 14°C
Umidità: 38%
Barometro: 1017 hPa
Sommario: Sereno
Visibilità: superiore a 10 km
2022/05/26 17:55 LIRG 261755Z 03005KT CAVOK 30/14 Q1017
LIRE - Roma-Pratica Di Mare(, Italy
Dati ricevuti: Fri, 27-May-2022 01:55
Sereno
Sereno
 Vento da NNE
Vento: NNE 19 km/h
Temperatura: 23°C
P.to di Rugiada: 18°C
Umidità: 74%
Barometro: 1016 hPa
Sommario: Sereno
Visibilità: superiore a 10 km
2022/05/26 23:55 LIRE 262355Z 02010KT CAVOK 23/18 Q1016
 
LIRF - Roma-Fiumicino, Italy
Dati ricevuti: Fri, 27-May-2022 02:50
Sereno
Sereno
 Vento da SSO
Vento: SSO 13 km/h
Temperatura: 23°C
P.to di Rugiada: 14°C
Umidità: 57%
Barometro: 1016 hPa
Sommario: Sereno
Visibilità: superiore a 10 km
2022/05/27 00:50 LIRF 270050Z 21007KT CAVOK 23/14 Q1016 NOSIG
LIRL - Latina (it-Afb), Italy
Dati ricevuti: Thu, 26-May-2022 19:55
Non attivo
Poco nuvoloso
Poco nuvoloso
 Vento da variabile
Vento: variabile 6 km/h
Temperatura: 28°C
P.to di Rugiada: 11°C
Umidità: 35%
Barometro: 1016 hPa
Nuvole: Poco nuvoloso
Visibilità: 10 km
Dettaglio nuvole: Poco nuvoloso 1829 m
2022/05/26 17:55 LIRL 261755Z VRB03KT 9999 FEW060 28/11 Q1016
 
LIRH - Frosinone (it-Af, Italy
Dati ricevuti: Thu, 26-May-2022 19:55
Non attivo
Sereno
Sereno
 Vento da NE
Vento: NE 4 km/h
Temperatura: 28°C
Indice di calore: 28°C
P.to di Rugiada: 16°C
Umidità: 48%
Barometro: 1017 hPa
Sommario: Sereno
Visibilità: superiore a 10 km
2022/05/26 17:55 LIRH 261755Z 05002KT CAVOK 28/16 Q1017
LIQN - Rieti, Italy
Dati ricevuti: Thu, 26-May-2022 19:50
Non attivo
Sereno
Sereno
 Vento da SSE
Vento: SSE 6 km/h
Temperatura: 27°C
Indice di calore: 27°C
P.to di Rugiada: 15°C
Umidità: 48%
Barometro: 1019 hPa
Sommario: Sereno
Visibilità: superiore a 10 km
2022/05/26 17:50 LIQN 261750Z 16003KT 110V190 CAVOK 27/15 Q1019
 
LIRK - Rieti-Monte Terminillo, Italy
Dati ricevuti: Fri, 27-May-2022 01:55

 Vento da variabile
Vento: variabile 0 km/h
2022/05/26 23:55 LIRK 262355Z AUTO /////KT //// ///// Q////
LIRV - Viterbo (it-Mil), Italy
Dati ricevuti: Thu, 26-May-2022 21:55
Non attivo
Sereno
Sereno
 Vento da OSO
Vento: OSO 13 km/h
Temperatura: 23°C
P.to di Rugiada: 13°C
Umidità: 53%
Barometro: 1019 hPa
Sommario: Sereno
Visibilità: superiore a 10 km
2022/05/26 19:55 LIRV 261955Z 25007KT CAVOK 23/13 Q1019
 
LIQO - Grosseto-Monte Argentario, Italy
Dati ricevuti: Fri, 27-May-2022 01:55

 Vento da variabile
Vento: variabile 0 km/h
2022/05/26 23:55 LIQO 262355Z AUTO /////KT //// ///// Q////
LIRZ - Perugia, Italy
Dati ricevuti: Fri, 27-May-2022 02:50
parzialmente nuvoloso
parzialmente nuvoloso
 Vento da NNO
Vento: NNO 11 km/h
Temperatura: 21°C
P.to di Rugiada: 17°C
Umidità: 78%
Barometro: 1018 hPa
Nuvole: parzialmente nuvoloso
Visibilità: 10 km
Dettaglio nuvole: parzialmente nuvoloso 3962 m
2022/05/27 00:50 LIRZ 270050Z AUTO 34006KT 9999 SCT130/// 21/17 Q1018
 
LIBP - Pescara, Italy
Dati ricevuti: Fri, 27-May-2022 02:50
Coperto
Coperto
 Vento da O
Vento: O 2 km/h
Temperatura: 19°C
P.to di Rugiada: 18°C
Umidità: 94%
Barometro: 1019 hPa
Nuvole: Coperto
Visibilità: 10 km
Dettaglio nuvole: Coperto 5182 m
2022/05/27 00:50 LIBP 270050Z AUTO 27001KT 9999 OVC170/// 19/18 Q1019
LIRM - Caserta-Grazzanise (it-A, Italy
Dati ricevuti: Fri, 27-May-2022 01:55
parzialmente nuvoloso
parzialmente nuvoloso
 Vento da NNO
Vento: NNO 11 km/h
Temperatura: 21°C
P.to di Rugiada: 15°C
Umidità: 69%
Barometro: 1016 hPa
Nuvole: parzialmente nuvoloso
Visibilità: 10 km
Dettaglio nuvole: parzialmente nuvoloso 2438 m
2022/05/26 23:55 LIRM 262355Z 33006KT 9999 SCT080 21/15 Q1016
 
LIRS - Grosseto (it-Afb, Italy
Dati ricevuti: Fri, 27-May-2022 01:55
Sereno
Sereno
 Vento da NNE
Vento: NNE 9 km/h
Temperatura: 20°C
P.to di Rugiada: 16°C
Umidità: 78%
Barometro: 1016 hPa
Sommario: Sereno
Visibilità: superiore a 10 km
2022/05/26 23:55 LIRS 262355Z 02005KT CAVOK 20/16 Q1016
LIRN - Napoli-Capodichino, Italy
Dati ricevuti: Fri, 27-May-2022 02:50

 Vento da E
Vento: E 19 km/h
Temperatura: 24°C
P.to di Rugiada: 15°C
Umidità: 57%
Barometro: 1014 hPa
Visibilità: 10 km
2022/05/27 00:50 LIRN 270050Z AUTO 09010KT 9999 ///////// 24/15 Q1014
 
LIVF - Pesaro Urbino-Frontone, Italy
Dati ricevuti: Fri, 27-May-2022 01:55
Sereno
Sereno
 Vento da NE
Vento: NE 7 km/h
Temperatura: 19°C
P.to di Rugiada: 16°C
Umidità: 83%
Barometro: 1021 hPa
Sommario: Sereno
Visibilità: superiore a 10 km
2022/05/26 23:55 LIVF 262355Z 04004KT CAVOK 19/16 Q1021
LIQC - Capri, Italy
Dati ricevuti: Fri, 27-May-2022 01:55
parzialmente nuvoloso
parzialmente nuvoloso
 Vento da ENE
Vento: ENE 22 km/h
Temperatura: 26°C
P.to di Rugiada: 12°C
Umidità: 42%
Barometro: 1015 hPa
Nuvole: parzialmente nuvoloso
Visibilità: 10 km
Dettaglio nuvole: parzialmente nuvoloso 914 m
2022/05/26 23:55 LIQC 262355Z 07012KT 9999 SCT030 26/12 Q1015 RMK SCT QUK / QUL / VIS MAR 15 KM VIS MIN 9999
 
LIPY - Ancona-Falconara (it-Af, Italy
Dati ricevuti: Fri, 27-May-2022 02:50
parzialmente nuvoloso
parzialmente nuvoloso
 Vento da SSO
Vento: SSO 6 km/h
Temperatura: 17°C
P.to di Rugiada: 15°C
Umidità: 88%
Barometro: 1019 hPa
Nuvole: parzialmente nuvoloso
Visibilità: 10 km
Dettaglio nuvole: parzialmente nuvoloso 4877 m
2022/05/27 00:50 LIPY 270050Z AUTO 20003KT 9999 SCT160/// 17/15 Q1019
LIRX - Monte Calamita, Italy
Dati ricevuti: Thu, 26-May-2022 19:55
Non attivo
Molto nuvoloso
Molto nuvoloso
 Vento da ESE
Vento: ESE 7 km/h
Temperatura: 25°C
P.to di Rugiada: 9°C
Umidità: 36%
Barometro: 1015 hPa
Nuvole: Molto nuvoloso
Visibilità: 10 km
Dettaglio nuvole: Molto nuvoloso 1219 m
2022/05/26 17:55 LIRX 261755Z 12004KT 9999 BKN040 25/09 Q1015
 
LIEB - Cape Bellavista, Italy
Dati ricevuti: Fri, 27-May-2022 01:55
parzialmente nuvoloso
parzialmente nuvoloso
 Vento da NE
Vento: NE 37 km/h
Temperatura: 19°C
P.to di Rugiada: 17°C
Umidità: 88%
Barometro: 1015 hPa
Nuvole: parzialmente nuvoloso
Visibilità: 10 km
Dettaglio nuvole: Poco nuvoloso 610 m
parzialmente nuvoloso 1219 m
2022/05/26 23:55 LIEB 262355Z 04020KT 9999 FEW020 SCT040 19/17 Q1015 RMK BKN QUK / QUL / VIS MAR 12 KM MON INVIS VIS MIN 9999
LIEC - Cape Carbonara, Italy
Dati ricevuti: Thu, 26-May-2022 22:55
Non attivo
Molto nuvoloso
Molto nuvoloso
 Vento da ENE
Vento: ENE 28 km/h
Temperatura: 22°C
P.to di Rugiada: 20°C
Umidità: 88%
Barometro: 1014 hPa
Nuvole: Molto nuvoloso
Visibilità: 10 km
Dettaglio nuvole: parzialmente nuvoloso 457 m
Poco nuvoloso 610 m
Molto nuvoloso 914 m
2022/05/26 20:55 LIEC 262055Z 06015KT 9999 SCT015 FEW020CB BKN030 22/20 Q1014 RMK OVC QUK / QUL / VIS MAR 10 KM VIS MIN 9999
 
LIED - Cagliari-Decimomannu(It-A, Italy
Dati ricevuti: Fri, 27-May-2022 01:55
Leggero temporale, Pioggia, parzialmente nuvoloso
Leggero temporale, Pioggia, parzialmente nuvoloso
 Vento da O
Vento: O 11 km/h
Temperatura: 19°C
P.to di Rugiada: 18°C
Umidità: 94%
Barometro: 1015 hPa
Sommario: Leggero temporale, Pioggia
Nuvole: parzialmente nuvoloso
Visibilità: 10 km
Dettaglio nuvole: parzialmente nuvoloso 457 m
parzialmente nuvoloso 1219 m
2022/05/26 23:55 LIED 262355Z 28006KT 9999 -TSRA SCT015CB SCT040 19/18 Q1015
LIEE - Cagliari-Elmas(A, Italy
Dati ricevuti: Fri, 27-May-2022 02:50
parzialmente nuvoloso
parzialmente nuvoloso
 Vento da NNO
Vento: NNO 11 km/h
Temperatura: 18°C
P.to di Rugiada: 16°C
Umidità: 88%
Barometro: 1014 hPa
Nuvole: parzialmente nuvoloso
Visibilità: 10 km
Dettaglio nuvole: Poco nuvoloso 914 m
parzialmente nuvoloso 1219 m
2022/05/27 00:50 LIEE 270050Z 33006KT 280V010 9999 FEW030CB SCT040 18/16 Q1014 RETS
 
LIEO - Olbia-Costa Smeralda, Italy
Dati ricevuti: Fri, 27-May-2022 02:50
Molto nuvoloso
Molto nuvoloso
 Vento da SSE
Vento: SSE 6 km/h
Temperatura: 20°C
P.to di Rugiada: 20°C
Umidità: 100%
Barometro: 1016 hPa
Nuvole: Molto nuvoloso
Visibilità: 10 km
Dettaglio nuvole: Molto nuvoloso 305 m
2022/05/27 00:50 LIEO 270050Z 16003KT 120V190 9999 BKN010 20/20 Q1016
LIEA - Alghero, Italy
Dati ricevuti: Fri, 27-May-2022 02:50
Sereno
Sereno
 Vento da variabile
Vento: variabile 2 km/h
Temperatura: 20°C
P.to di Rugiada: 19°C
Umidità: 94%
Barometro: 1015 hPa
Sommario: Sereno
Visibilità: superiore a 10 km
2022/05/27 00:50 LIEA 270050Z VRB01KT CAVOK 20/19 Q1015
 
LICA - Catanzaro-Lamezia Terme, Italy
Dati ricevuti: Fri, 27-May-2022 02:50
Sereno
Sereno
 Vento da ENE
Vento: ENE 22 km/h
Temperatura: 26°C
P.to di Rugiada: 11°C
Umidità: 39%
Barometro: 1015 hPa
Nuvole: Sereno
Visibilità: 10 km
2022/05/27 00:50 LICA 270050Z AUTO 06012KT 9999 NCD 26/11 Q1015
LIBQ - Cosenza-Monte Scuro, Italy
Dati ricevuti: Fri, 27-May-2022 01:55
Sereno
Sereno
 Vento da E
Vento: E 13 km/h
Temperatura: 18°C
P.to di Rugiada: 5°C
Umidità: 43%
Barometro: 1027 hPa
Sommario: Sereno
Visibilità: superiore a 10 km
2022/05/26 23:55 LIBQ 262355Z 09007KT CAVOK 18/05 Q1027
 
LICR - Reggio Calabria, Italy
Dati ricevuti: Fri, 27-May-2022 02:50
Poco nuvoloso
Poco nuvoloso
 Vento da SSO
Vento: SSO 20 km/h
Temperatura: 21°C
P.to di Rugiada: 18°C
Umidità: 83%
Barometro: 1017 hPa
Nuvole: Poco nuvoloso
Visibilità: 10 km
Dettaglio nuvole: Poco nuvoloso 6706 m
2022/05/27 00:50 LICR 270050Z AUTO 20011KT 9999 FEW220/// 21/18 Q1017
LIBV - Bari-Gioia Del Colle, Italy
Dati ricevuti: Fri, 27-May-2022 01:55
Sereno
Sereno
 Vento da variabile
Vento: variabile 2 km/h
Temperatura: 18°C
P.to di Rugiada: 16°C
Umidità: 88%
Barometro: 1018 hPa
Sommario: Sereno
Visibilità: superiore a 10 km
2022/05/26 23:55 LIBV 262355Z VRB01KT CAVOK 18/16 Q1018
 
LIBD - Bari-Palese Macchie, Italy
Dati ricevuti: Fri, 27-May-2022 02:20
Molto nuvoloso
Molto nuvoloso
 Vento da O
Vento: O 9 km/h
Temperatura: 20°C
P.to di Rugiada: 20°C
Umidità: 100%
Barometro: 1018 hPa
Nuvole: Molto nuvoloso
Visibilità: 10 km
Dettaglio nuvole: Molto nuvoloso 61 m
2022/05/27 00:20 LIBD 270020Z 26005KT 9999 BKN002 20/20 Q1018
LIBR - Brindisi-Casale, Italy
Dati ricevuti: Fri, 27-May-2022 02:20
Sereno
Sereno
 Vento da ONO
Vento: ONO 9 km/h
Temperatura: 20°C
P.to di Rugiada: 18°C
Umidità: 88%
Barometro: 1018 hPa
Sommario: Sereno
Visibilità: superiore a 10 km
2022/05/27 00:20 LIBR 270020Z 30005KT CAVOK 20/18 Q1018
 
LIRT - Trevico, Italy
Dati ricevuti: Thu, 26-May-2022 19:55
Non attivo
Sereno
Sereno
 Vento da S
Vento: S 4 km/h
Temperatura: 21°C
P.to di Rugiada: 17°C
Umidità: 78%
Barometro: 1023 hPa
Sommario: Sereno
Visibilità: superiore a 10 km
2022/05/26 17:55 LIRT 261755Z 18002KT CAVOK 21/17 Q1023
LICB - Comiso, Italy
Dati ricevuti: Fri, 27-May-2022 02:50
Sereno
Sereno
 Vento da variabile
Vento: variabile 9 km/h
Temperatura: 26°C
P.to di Rugiada: 2°C
Umidità: 21%
Barometro: 1016 hPa
Nuvole: Sereno
Visibilità: 10 km
2022/05/27 00:50 LICB 270050Z AUTO VRB05KT 9999 NCD 26/02 Q1016
 
LICL - Gela, Italy
Dati ricevuti: Thu, 26-May-2022 19:55
Non attivo
parzialmente nuvoloso
parzialmente nuvoloso
 Vento da ENE
Vento: ENE 15 km/h
Temperatura: 31°C
P.to di Rugiada: 13°C
Umidità: 33%
Barometro: 1014 hPa
Nuvole: parzialmente nuvoloso
Visibilità: 10 km
Dettaglio nuvole: parzialmente nuvoloso 610 m
2022/05/26 17:55 LICL 261755Z 07008KT 040V100 9999 SCT020 31/13 Q1014 RMK BKN BKN080 QUK 1 QUL 0 VIS MAR 12 KM VIS MIN 9999
LIBN - Lecce (it-Afb), Italy
Dati ricevuti: Fri, 27-May-2022 01:55
Sereno
Sereno
 Vento da SSE
Vento: SSE 4 km/h
Temperatura: 19°C
P.to di Rugiada: 17°C
Umidità: 88%
Barometro: 1019 hPa
Sommario: Sereno
Visibilità: superiore a 10 km
2022/05/26 23:55 LIBN 262355Z 16002KT CAVOK 19/17 Q1019
 
LICJ - Palermo-Punta Raisi, Italy
Dati ricevuti: Fri, 27-May-2022 02:50
Sereno
Sereno
 Vento da SO
Vento: SO 13 km/h
Temperatura: 21°C
P.to di Rugiada: 16°C
Umidità: 73%
Barometro: 1014 hPa
Sommario: Sereno
Visibilità: superiore a 10 km
2022/05/27 00:50 LICJ 270050Z 22007KT CAVOK 21/16 Q1014
LICZ - Catania-Sigonella (nas), Italy
Dati ricevuti: Fri, 27-May-2022 01:55
Molto nuvoloso
Molto nuvoloso
 Vento da SE
Vento: SE 4 km/h
Temperatura: 19°C
P.to di Rugiada: 19°C
Umidità: 100%
Barometro: 1017 hPa
Nuvole: Molto nuvoloso
Visibilità: 10 km
Dettaglio nuvole: Molto nuvoloso 3048 m
2022/05/26 23:55 LICZ 262355Z 14002KT 9999 BKN100 19/19 Q1017
 
LICC - Catania-Fontanarossa, Italy
Dati ricevuti: Fri, 27-May-2022 02:50
Sereno
Sereno
 Vento da variabile
Vento: variabile 2 km/h
Temperatura: 20°C
P.to di Rugiada: 18°C
Umidità: 88%
Barometro: 1017 hPa
Sommario: Sereno
Visibilità: superiore a 10 km
2022/05/27 00:50 LICC 270050Z VRB01KT CAVOK 20/18 Q1017
LICT - Trapani-Birgi (a, Italy
Dati ricevuti: Fri, 27-May-2022 01:55
Sereno
Sereno
 Vento da NNE
Vento: NNE 9 km/h
Temperatura: 21°C
P.to di Rugiada: 19°C
Umidità: 88%
Barometro: 1014 hPa
Sommario: Sereno
Visibilità: superiore a 10 km
2022/05/26 23:55 LICT 262355Z 02005KT CAVOK 21/19 Q1014
 
LICD - Agrigento-Lampedusa, Italy
Dati ricevuti: Fri, 27-May-2022 02:50
parzialmente nuvoloso
parzialmente nuvoloso
 Vento da ESE
Vento: ESE 28 km/h
Temperatura: 23°C
P.to di Rugiada: 18°C
Umidità: 74%
Barometro: 1010 hPa
Nuvole: parzialmente nuvoloso
Visibilità: 10 km
Dettaglio nuvole: parzialmente nuvoloso 5486 m
2022/05/27 00:50 LICD 270050Z AUTO 12015KT 9999 SCT180/// 23/18 Q1010
LICG - Pantelleria(It-A, Italy
Dati ricevuti: Thu, 26-May-2022 22:50
Non attivo
Sereno
Sereno
 Vento da SE
Vento: SE 46 km/h
Temperatura: 30°C
P.to di Rugiada: -3°C
Umidità: 11%
Barometro: 1014 hPa
Sommario: Sereno
Visibilità: superiore a 10 km
2022/05/26 20:50 LICG 262050Z 13025KT CAVOK 30/M03 Q1014


GLOSSARIO METEOROLOGICO
Vento
Il vento è prodotto dalla differenza di pressione tra due zone e serve per ristabilirne l'equilibrio. Dalla zona con pressione più alta l'aria affluisce a quella con pressione inferiore. Più le isobare (linee di ugual pressione) sono ravvicinate e più la forza del vento sarà intensa. Il vento è classificato dalla scala Beaufort. E' definito dalla sua direzione e dalla sua forza o, più esattamente, dalla sua velocità. Vento, pressione atmosferica e temperatura stanno in rapporto funzionale con l'andamento del tempo.
Share

Non seguire questo link o sarai bannato dal sito!